sensor_id;sensor_type;location;lat;lon;timestamp;temperature;humidity
65995;HTU21D;52764;51.036;5.852;2023-05-28T00:01:51;17.17;56.87
65995;HTU21D;52764;51.036;5.852;2023-05-28T00:04:16;17.18;56.86
65995;HTU21D;52764;51.036;5.852;2023-05-28T00:06:42;17.14;56.94
65995;HTU21D;52764;51.036;5.852;2023-05-28T00:09:08;17.10;57.12
65995;HTU21D;52764;51.036;5.852;2023-05-28T00:11:34;17.07;57.27
65995;HTU21D;52764;51.036;5.852;2023-05-28T00:14:00;17.04;57.26
65995;HTU21D;52764;51.036;5.852;2023-05-28T00:16:26;17.02;57.34
65995;HTU21D;52764;51.036;5.852;2023-05-28T00:19:05;17.00;57.45
65995;HTU21D;52764;51.036;5.852;2023-05-28T00:21:31;16.95;57.58
65995;HTU21D;52764;51.036;5.852;2023-05-28T00:24:00;16.89;57.70
65995;HTU21D;52764;51.036;5.852;2023-05-28T00:26:26;16.84;58.06
65995;HTU21D;52764;51.036;5.852;2023-05-28T00:28:52;16.75;58.47
65995;HTU21D;52764;51.036;5.852;2023-05-28T00:31:18;16.64;58.75
65995;HTU21D;52764;51.036;5.852;2023-05-28T00:33:44;16.51;59.06
65995;HTU21D;52764;51.036;5.852;2023-05-28T00:36:11;16.41;59.82
65995;HTU21D;52764;51.036;5.852;2023-05-28T00:38:37;16.31;60.14
65995;HTU21D;52764;51.036;5.852;2023-05-28T00:41:03;16.21;60.68
65995;HTU21D;52764;51.036;5.852;2023-05-28T00:43:29;16.14;61.26
65995;HTU21D;52764;51.036;5.852;2023-05-28T00:45:59;16.01;62.00
65995;HTU21D;52764;51.036;5.852;2023-05-28T00:48:25;15.93;62.47
65995;HTU21D;52764;51.036;5.852;2023-05-28T00:50:51;15.89;62.75
65995;HTU21D;52764;51.036;5.852;2023-05-28T00:53:18;15.85;62.98
65995;HTU21D;52764;51.036;5.852;2023-05-28T00:55:44;15.82;63.01
65995;HTU21D;52764;51.036;5.852;2023-05-28T00:58:10;15.80;63.04
65995;HTU21D;52764;51.036;5.852;2023-05-28T01:00:37;15.81;62.98
65995;HTU21D;52764;51.036;5.852;2023-05-28T01:03:04;15.81;62.86
65995;HTU21D;52764;51.036;5.852;2023-05-28T01:05:32;15.82;62.73
65995;HTU21D;52764;51.036;5.852;2023-05-28T01:08:04;15.83;62.51
65995;HTU21D;52764;51.036;5.852;2023-05-28T01:10:32;15.82;62.46
65995;HTU21D;52764;51.036;5.852;2023-05-28T01:13:00;15.82;62.60
65995;HTU21D;52764;51.036;5.852;2023-05-28T01:15:27;15.81;62.73
65995;HTU21D;52764;51.036;5.852;2023-05-28T01:17:57;15.80;62.67
65995;HTU21D;52764;51.036;5.852;2023-05-28T01:20:25;15.83;62.60
65995;HTU21D;52764;51.036;5.852;2023-05-28T01:22:55;15.76;62.66
65995;HTU21D;52764;51.036;5.852;2023-05-28T01:25:22;15.73;62.61
65995;HTU21D;52764;51.036;5.852;2023-05-28T01:27:49;15.72;62.50
65995;HTU21D;52764;51.036;5.852;2023-05-28T01:30:16;15.68;62.60
65995;HTU21D;52764;51.036;5.852;2023-05-28T01:32:43;15.62;62.60
65995;HTU21D;52764;51.036;5.852;2023-05-28T01:35:10;15.59;62.53
65995;HTU21D;52764;51.036;5.852;2023-05-28T01:37:46;15.57;62.53
65995;HTU21D;52764;51.036;5.852;2023-05-28T01:40:16;15.60;62.32
65995;HTU21D;52764;51.036;5.852;2023-05-28T01:42:47;15.62;62.18
65995;HTU21D;52764;51.036;5.852;2023-05-28T01:45:14;15.61;62.10
65995;HTU21D;52764;51.036;5.852;2023-05-28T01:47:41;15.58;62.14
65995;HTU21D;52764;51.036;5.852;2023-05-28T01:50:08;15.57;62.18
65995;HTU21D;52764;51.036;5.852;2023-05-28T01:52:35;15.53;62.19
65995;HTU21D;52764;51.036;5.852;2023-05-28T01:55:01;15.46;62.43
65995;HTU21D;52764;51.036;5.852;2023-05-28T01:57:26;15.42;62.66
65995;HTU21D;52764;51.036;5.852;2023-05-28T01:59:53;15.41;62.75
65995;HTU21D;52764;51.036;5.852;2023-05-28T02:02:19;15.39;62.81
65995;HTU21D;52764;51.036;5.852;2023-05-28T02:04:48;15.36;62.86
65995;HTU21D;52764;51.036;5.852;2023-05-28T02:07:13;15.30;62.92
65995;HTU21D;52764;51.036;5.852;2023-05-28T02:09:39;15.27;62.96
65995;HTU21D;52764;51.036;5.852;2023-05-28T02:12:07;15.24;63.06
65995;HTU21D;52764;51.036;5.852;2023-05-28T02:14:33;15.21;63.11
65995;HTU21D;52764;51.036;5.852;2023-05-28T02:16:58;15.21;63.18
65995;HTU21D;52764;51.036;5.852;2023-05-28T02:19:25;15.16;63.21
65995;HTU21D;52764;51.036;5.852;2023-05-28T02:21:52;15.09;63.52
65995;HTU21D;52764;51.036;5.852;2023-05-28T02:24:18;15.02;63.85
65995;HTU21D;52764;51.036;5.852;2023-05-28T02:26:43;14.98;64.01
65995;HTU21D;52764;51.036;5.852;2023-05-28T02:29:10;10.89;64.01
65995;HTU21D;52764;51.036;5.852;2023-05-28T02:31:35;14.94;64.11
65995;HTU21D;52764;51.036;5.852;2023-05-28T02:34:01;14.83;64.13
65995;HTU21D;52764;51.036;5.852;2023-05-28T02:36:27;14.74;63.99
65995;HTU21D;52764;51.036;5.852;2023-05-28T02:38:56;14.64;64.38
65995;HTU21D;52764;51.036;5.852;2023-05-28T02:41:22;14.56;64.94
65995;HTU21D;52764;51.036;5.852;2023-05-28T02:43:49;14.49;65.65
65995;HTU21D;52764;51.036;5.852;2023-05-28T02:46:14;14.42;65.74
65995;HTU21D;52764;51.036;5.852;2023-05-28T02:48:40;14.36;65.69
65995;HTU21D;52764;51.036;5.852;2023-05-28T02:51:08;14.33;66.01
65995;HTU21D;52764;51.036;5.852;2023-05-28T02:53:56;14.29;66.46
65995;HTU21D;52764;51.036;5.852;2023-05-28T02:56:23;14.25;66.96
65995;HTU21D;52764;51.036;5.852;2023-05-28T02:58:49;14.25;67.33
65995;HTU21D;52764;51.036;5.852;2023-05-28T03:01:15;14.27;67.20
65995;HTU21D;52764;51.036;5.852;2023-05-28T03:03:40;14.26;67.39
65995;HTU21D;52764;51.036;5.852;2023-05-28T03:06:07;14.26;67.41
65995;HTU21D;52764;51.036;5.852;2023-05-28T03:08:42;14.25;67.57
65995;HTU21D;52764;51.036;5.852;2023-05-28T03:11:08;14.24;67.67
65995;HTU21D;52764;51.036;5.852;2023-05-28T03:13:33;14.24;67.70
65995;HTU21D;52764;51.036;5.852;2023-05-28T03:15:59;14.25;67.75
65995;HTU21D;52764;51.036;5.852;2023-05-28T03:18:27;14.26;67.74
65995;HTU21D;52764;51.036;5.852;2023-05-28T03:20:52;14.30;67.59
65995;HTU21D;52764;51.036;5.852;2023-05-28T03:23:19;14.22;68.09
65995;HTU21D;52764;51.036;5.852;2023-05-28T03:26:01;14.22;67.80
65995;HTU21D;52764;51.036;5.852;2023-05-28T03:28:28;14.23;67.94
65995;HTU21D;52764;51.036;5.852;2023-05-28T03:31:12;14.19;68.26
65995;HTU21D;52764;51.036;5.852;2023-05-28T03:33:38;14.11;68.56
65995;HTU21D;52764;51.036;5.852;2023-05-28T03:36:04;-12.83;68.00
65995;HTU21D;52764;51.036;5.852;2023-05-28T03:38:32;14.00;67.98
65995;HTU21D;52764;51.036;5.852;2023-05-28T03:40:59;13.97;67.82
65995;HTU21D;52764;51.036;5.852;2023-05-28T03:43:25;13.93;67.81
65995;HTU21D;52764;51.036;5.852;2023-05-28T03:45:51;13.86;68.04
65995;HTU21D;52764;51.036;5.852;2023-05-28T03:48:17;13.92;68.09
65995;HTU21D;52764;51.036;5.852;2023-05-28T03:50:43;14.04;67.64
65995;HTU21D;52764;51.036;5.852;2023-05-28T03:53:08;14.19;67.37
65995;HTU21D;52764;51.036;5.852;2023-05-28T03:55:34;14.38;67.20
65995;HTU21D;52764;51.036;5.852;2023-05-28T03:58:02;14.60;66.80
65995;HTU21D;52764;51.036;5.852;2023-05-28T04:00:28;14.87;65.82
65995;HTU21D;52764;51.036;5.852;2023-05-28T04:02:54;15.11;64.96
65995;HTU21D;52764;51.036;5.852;2023-05-28T04:05:20;15.32;64.12
65995;HTU21D;52764;51.036;5.852;2023-05-28T04:07:48;15.54;63.30
65995;HTU21D;52764;51.036;5.852;2023-05-28T04:10:14;15.76;62.60
65995;HTU21D;52764;51.036;5.852;2023-05-28T04:12:40;15.90;61.70
65995;HTU21D;52764;51.036;5.852;2023-05-28T04:15:06;15.92;60.88
65995;HTU21D;52764;51.036;5.852;2023-05-28T04:17:32;15.86;60.39
65995;HTU21D;52764;51.036;5.852;2023-05-28T04:19:58;15.85;60.47
65995;HTU21D;52764;51.036;5.852;2023-05-28T04:22:24;15.85;60.64
65995;HTU21D;52764;51.036;5.852;2023-05-28T04:24:52;15.87;60.91
65995;HTU21D;52764;51.036;5.852;2023-05-28T04:27:21;-9.53;61.70
65995;HTU21D;52764;51.036;5.852;2023-05-28T04:29:47;15.73;62.82
65995;HTU21D;52764;51.036;5.852;2023-05-28T04:32:13;16.05;63.79
65995;HTU21D;52764;51.036;5.852;2023-05-28T04:34:39;16.55;63.21
65995;HTU21D;52764;51.036;5.852;2023-05-28T04:37:08;17.17;61.76
65995;HTU21D;52764;51.036;5.852;2023-05-28T04:39:33;18.04;59.18
65995;HTU21D;52764;51.036;5.852;2023-05-28T04:42:00;19.01;56.21
65995;HTU21D;52764;51.036;5.852;2023-05-28T04:44:31;19.92;53.41
65995;HTU21D;52764;51.036;5.852;2023-05-28T04:47:00;23.49;51.68
65995;HTU21D;52764;51.036;5.852;2023-05-28T04:49:26;21.16;50.16
65995;HTU21D;52764;51.036;5.852;2023-05-28T04:51:52;21.82;48.53
65995;HTU21D;52764;51.036;5.852;2023-05-28T04:54:18;22.41;46.80
65995;HTU21D;52764;51.036;5.852;2023-05-28T04:56:44;22.82;45.63
65995;HTU21D;52764;51.036;5.852;2023-05-28T04:59:12;23.21;44.53
65995;HTU21D;52764;51.036;5.852;2023-05-28T05:01:37;23.58;43.58
65995;HTU21D;52764;51.036;5.852;2023-05-28T05:04:06;23.95;42.73
65995;HTU21D;52764;51.036;5.852;2023-05-28T05:06:32;24.28;27.24
65995;HTU21D;52764;51.036;5.852;2023-05-28T05:08:59;24.55;41.12
65995;HTU21D;52764;51.036;5.852;2023-05-28T05:11:26;24.73;40.53
65995;HTU21D;52764;51.036;5.852;2023-05-28T05:13:52;25.00;39.74
65995;HTU21D;52764;51.036;5.852;2023-05-28T05:16:19;25.21;39.05
65995;HTU21D;52764;51.036;5.852;2023-05-28T05:18:45;25.33;38.77
65995;HTU21D;52764;51.036;5.852;2023-05-28T05:21:11;25.40;38.61
65995;HTU21D;52764;51.036;5.852;2023-05-28T05:23:39;25.38;38.90
65995;HTU21D;52764;51.036;5.852;2023-05-28T05:26:06;25.59;38.75
65995;HTU21D;52764;51.036;5.852;2023-05-28T05:28:32;25.80;38.58
65995;HTU21D;52764;51.036;5.852;2023-05-28T05:30:58;26.06;37.62
65995;HTU21D;52764;51.036;5.852;2023-05-28T05:33:24;26.37;37.17
65995;HTU21D;52764;51.036;5.852;2023-05-28T05:36:28;26.68;36.24
65995;HTU21D;52764;51.036;5.852;2023-05-28T05:39:05;26.86;35.49
65995;HTU21D;52764;51.036;5.852;2023-05-28T05:41:51;26.78;14.62
65995;HTU21D;52764;51.036;5.852;2023-05-28T05:44:20;26.93;35.42
65995;HTU21D;52764;51.036;5.852;2023-05-28T05:46:47;27.17;34.83
65995;HTU21D;52764;51.036;5.852;2023-05-28T05:49:13;27.19;34.79
65995;HTU21D;52764;51.036;5.852;2023-05-28T05:51:39;27.19;34.63
65995;HTU21D;52764;51.036;5.852;2023-05-28T05:54:05;26.97;36.76
65995;HTU21D;52764;51.036;5.852;2023-05-28T05:56:31;26.89;35.15
65995;HTU21D;52764;51.036;5.852;2023-05-28T05:58:58;27.12;34.71
65995;HTU21D;52764;51.036;5.852;2023-05-28T06:01:25;27.51;33.89
65995;HTU21D;52764;51.036;5.852;2023-05-28T06:03:51;27.84;33.15
65995;HTU21D;52764;51.036;5.852;2023-05-28T06:06:36;27.45;33.62
65995;HTU21D;52764;51.036;5.852;2023-05-28T06:09:21;27.64;33.36
65995;HTU21D;52764;51.036;5.852;2023-05-28T06:11:50;28.14;32.60
65995;HTU21D;52764;51.036;5.852;2023-05-28T06:14:16;16.19;31.88
65995;HTU21D;52764;51.036;5.852;2023-05-28T06:16:42;29.00;31.05
65995;HTU21D;52764;51.036;5.852;2023-05-28T06:19:08;29.18;30.56
65995;HTU21D;52764;51.036;5.852;2023-05-28T06:21:34;29.33;30.45
65995;HTU21D;52764;51.036;5.852;2023-05-28T06:24:02;29.64;30.08
65995;HTU21D;52764;51.036;5.852;2023-05-28T06:26:28;29.94;29.66
65995;HTU21D;52764;51.036;5.852;2023-05-28T06:28:55;30.27;28.88
65995;HTU21D;52764;51.036;5.852;2023-05-28T06:31:21;30.30;28.56
65995;HTU21D;52764;51.036;5.852;2023-05-28T06:33:47;30.24;28.25
65995;HTU21D;52764;51.036;5.852;2023-05-28T06:36:13;30.22;28.83
65995;HTU21D;52764;51.036;5.852;2023-05-28T06:38:39;30.42;28.79
65995;HTU21D;52764;51.036;5.852;2023-05-28T06:41:05;30.57;28.52
65995;HTU21D;52764;51.036;5.852;2023-05-28T06:43:37;30.50;27.61
65995;HTU21D;52764;51.036;5.852;2023-05-28T06:46:09;30.42;28.57
65995;HTU21D;52764;51.036;5.852;2023-05-28T06:48:35;30.78;28.68
65995;HTU21D;52764;51.036;5.852;2023-05-28T06:51:00;30.42;28.76
65995;HTU21D;52764;51.036;5.852;2023-05-28T06:53:26;30.63;28.39
65995;HTU21D;52764;51.036;5.852;2023-05-28T06:55:52;20.78;28.16
65995;HTU21D;52764;51.036;5.852;2023-05-28T06:58:38;31.27;27.71
65995;HTU21D;52764;51.036;5.852;2023-05-28T07:01:17;31.60;-2.73
65995;HTU21D;52764;51.036;5.852;2023-05-28T07:03:59;31.59;26.45
65995;HTU21D;52764;51.036;5.852;2023-05-28T07:06:36;31.81;29.11
65995;HTU21D;52764;51.036;5.852;2023-05-28T07:09:02;32.08;27.13
65995;HTU21D;52764;51.036;5.852;2023-05-28T07:11:28;32.33;25.69
65995;HTU21D;52764;51.036;5.852;2023-05-28T07:13:55;32.42;25.26
65995;HTU21D;52764;51.036;5.852;2023-05-28T07:16:22;32.48;25.04
65995;HTU21D;52764;51.036;5.852;2023-05-28T07:18:48;32.53;24.79
65995;HTU21D;52764;51.036;5.852;2023-05-28T07:21:15;32.76;24.37
65995;HTU21D;52764;51.036;5.852;2023-05-28T07:23:44;32.64;24.69
65995;HTU21D;52764;51.036;5.852;2023-05-28T07:26:10;32.84;24.65
65995;HTU21D;52764;51.036;5.852;2023-05-28T07:28:36;32.87;24.17
65995;HTU21D;52764;51.036;5.852;2023-05-28T07:31:02;32.79;24.00
65995;HTU21D;52764;51.036;5.852;2023-05-28T07:33:29;32.71;23.79
65995;HTU21D;52764;51.036;5.852;2023-05-28T07:35:56;32.64;24.27
65995;HTU21D;52764;51.036;5.852;2023-05-28T07:38:21;32.68;24.07
65995;HTU21D;52764;51.036;5.852;2023-05-28T07:40:50;32.30;55.52
65995;HTU21D;52764;51.036;5.852;2023-05-28T07:43:45;32.31;55.34
65995;HTU21D;52764;51.036;5.852;2023-05-28T07:46:24;32.00;25.46
65995;HTU21D;52764;51.036;5.852;2023-05-28T07:49:03;32.34;25.04
65995;HTU21D;52764;51.036;5.852;2023-05-28T07:51:37;32.84;24.22
65995;HTU21D;52764;51.036;5.852;2023-05-28T07:54:06;33.19;23.67
65995;HTU21D;52764;51.036;5.852;2023-05-28T07:56:33;33.57;23.05
65995;HTU21D;52764;51.036;5.852;2023-05-28T07:58:59;34.02;22.91
65995;HTU21D;52764;51.036;5.852;2023-05-28T08:01:25;32.97;22.05
65995;HTU21D;52764;51.036;5.852;2023-05-28T08:03:51;34.15;50.07
65995;HTU21D;52764;51.036;5.852;2023-05-28T08:06:22;27.15;21.98
65995;HTU21D;52764;51.036;5.852;2023-05-28T08:08:48;34.12;22.31
65995;HTU21D;52764;51.036;5.852;2023-05-28T08:11:14;34.01;22.10
65995;HTU21D;52764;51.036;5.852;2023-05-28T08:13:41;33.85;21.99
65995;HTU21D;52764;51.036;5.852;2023-05-28T08:16:11;33.64;22.28
65995;HTU21D;52764;51.036;5.852;2023-05-28T08:19:15;33.50;22.34
65995;HTU21D;52764;51.036;5.852;2023-05-28T08:21:43;25.74;22.73
65995;HTU21D;52764;51.036;5.852;2023-05-28T08:24:09;33.21;22.83
65995;HTU21D;52764;51.036;5.852;2023-05-28T08:26:37;30.48;23.14
65995;HTU21D;52764;51.036;5.852;2023-05-28T08:29:03;32.77;23.59
65995;HTU21D;52764;51.036;5.852;2023-05-28T08:31:35;32.50;23.84
65995;HTU21D;52764;51.036;5.852;2023-05-28T08:34:15;32.68;23.64
65995;HTU21D;52764;51.036;5.852;2023-05-28T08:36:43;32.85;23.53
65995;HTU21D;52764;51.036;5.852;2023-05-28T08:39:13;32.72;23.88
65995;HTU21D;52764;51.036;5.852;2023-05-28T08:41:43;32.68;23.81
65995;HTU21D;52764;51.036;5.852;2023-05-28T08:44:09;32.87;53.65
65995;HTU21D;52764;51.036;5.852;2023-05-28T08:46:37;30.21;22.86
65995;HTU21D;52764;51.036;5.852;2023-05-28T08:49:41;33.75;22.18
65995;HTU21D;52764;51.036;5.852;2023-05-28T08:52:12;33.72;21.63
65995;HTU21D;52764;51.036;5.852;2023-05-28T08:54:42;33.86;21.89
65995;HTU21D;52764;51.036;5.852;2023-05-28T08:57:09;33.75;21.72
65995;HTU21D;52764;51.036;5.852;2023-05-28T08:59:44;33.78;21.75
65995;HTU21D;52764;51.036;5.852;2023-05-28T09:02:12;33.07;21.95
65995;HTU21D;52764;51.036;5.852;2023-05-28T09:04:38;31.98;23.34
65995;HTU21D;52764;51.036;5.852;2023-05-28T09:07:05;22.01;24.20
65995;HTU21D;52764;51.036;5.852;2023-05-28T09:09:40;31.79;25.05
65995;HTU21D;52764;51.036;5.852;2023-05-28T09:12:11;30.52;26.19
65995;HTU21D;52764;51.036;5.852;2023-05-28T09:14:40;30.38;26.71
65995;HTU21D;52764;51.036;5.852;2023-05-28T09:17:07;30.10;27.16
65995;HTU21D;52764;51.036;5.852;2023-05-28T09:19:35;29.72;27.55
65995;HTU21D;52764;51.036;5.852;2023-05-28T09:22:01;29.50;28.05
65995;HTU21D;52764;51.036;5.852;2023-05-28T09:24:49;29.08;28.32
65995;HTU21D;52764;51.036;5.852;2023-05-28T09:27:32;28.95;28.87
65995;HTU21D;52764;51.036;5.852;2023-05-28T09:30:06;28.86;28.69
65995;HTU21D;52764;51.036;5.852;2023-05-28T09:32:35;28.59;29.38
65995;HTU21D;52764;51.036;5.852;2023-05-28T09:35:05;28.45;29.50
65995;HTU21D;52764;51.036;5.852;2023-05-28T09:37:31;28.37;28.99
65995;HTU21D;52764;51.036;5.852;2023-05-28T09:40:07;28.12;28.66
65995;HTU21D;52764;51.036;5.852;2023-05-28T09:42:39;27.87;29.03
65995;HTU21D;52764;51.036;5.852;2023-05-28T09:45:08;27.89;28.38
65995;HTU21D;52764;51.036;5.852;2023-05-28T09:47:42;27.47;29.07
65995;HTU21D;52764;51.036;5.852;2023-05-28T09:50:08;27.25;29.61
65995;HTU21D;52764;51.036;5.852;2023-05-28T09:52:38;27.15;30.00
65995;HTU21D;52764;51.036;5.852;2023-05-28T09:55:07;27.23;29.52
65995;HTU21D;52764;51.036;5.852;2023-05-28T09:57:35;27.26;29.14
65995;HTU21D;52764;51.036;5.852;2023-05-28T10:00:02;27.28;29.10
65995;HTU21D;52764;51.036;5.852;2023-05-28T10:05:28;27.64;28.68
65995;HTU21D;52764;51.036;5.852;2023-05-28T10:07:55;27.66;28.86
65995;HTU21D;52764;51.036;5.852;2023-05-28T10:10:23;27.73;28.29
65995;HTU21D;52764;51.036;5.852;2023-05-28T10:12:51;27.79;28.31
65995;HTU21D;52764;51.036;5.852;2023-05-28T10:15:19;27.75;28.44
65995;HTU21D;52764;51.036;5.852;2023-05-28T10:17:45;27.80;28.97
65995;HTU21D;52764;51.036;5.852;2023-05-28T10:20:11;27.78;28.57
65995;HTU21D;52764;51.036;5.852;2023-05-28T10:22:39;27.68;28.59
65995;HTU21D;52764;51.036;5.852;2023-05-28T10:25:07;27.61;0.78
65995;HTU21D;52764;51.036;5.852;2023-05-28T10:27:42;27.61;28.74
65995;HTU21D;52764;51.036;5.852;2023-05-28T10:30:10;27.57;29.06
65995;HTU21D;52764;51.036;5.852;2023-05-28T10:32:41;27.44;29.31
65995;HTU21D;52764;51.036;5.852;2023-05-28T10:35:12;27.34;28.77
65995;HTU21D;52764;51.036;5.852;2023-05-28T10:37:38;27.09;28.61
65995;HTU21D;52764;51.036;5.852;2023-05-28T10:40:08;26.99;29.29
65995;HTU21D;52764;51.036;5.852;2023-05-28T10:42:40;27.17;29.36
65995;HTU21D;52764;51.036;5.852;2023-05-28T10:45:08;27.29;29.45
65995;HTU21D;52764;51.036;5.852;2023-05-28T10:47:40;27.40;29.34
65995;HTU21D;52764;51.036;5.852;2023-05-28T10:52:36;26.72;28.97
65995;HTU21D;52764;51.036;5.852;2023-05-28T10:55:07;26.82;30.06
65995;HTU21D;52764;51.036;5.852;2023-05-28T10:57:42;26.76;30.86
65995;HTU21D;52764;51.036;5.852;2023-05-28T11:00:08;26.89;30.80
65995;HTU21D;52764;51.036;5.852;2023-05-28T11:02:40;26.92;30.39
65995;HTU21D;52764;51.036;5.852;2023-05-28T11:05:07;26.77;30.43
65995;HTU21D;52764;51.036;5.852;2023-05-28T11:07:39;26.76;31.03
65995;HTU21D;52764;51.036;5.852;2023-05-28T11:10:08;27.04;30.83
65995;HTU21D;52764;51.036;5.852;2023-05-28T11:12:38;27.35;29.22
65995;HTU21D;52764;51.036;5.852;2023-05-28T11:15:07;27.55;29.57
65995;HTU21D;52764;51.036;5.852;2023-05-28T11:17:41;27.68;29.55
65995;HTU21D;52764;51.036;5.852;2023-05-28T11:20:23;27.70;28.97
65995;HTU21D;52764;51.036;5.852;2023-05-28T11:22:55;27.56;28.53
65995;HTU21D;52764;51.036;5.852;2023-05-28T11:25:22;27.52;29.12
65995;HTU21D;52764;51.036;5.852;2023-05-28T11:27:53;27.70;29.13
65995;HTU21D;52764;51.036;5.852;2023-05-28T11:30:20;27.76;28.41
65995;HTU21D;52764;51.036;5.852;2023-05-28T11:32:48;27.78;28.46
65995;HTU21D;52764;51.036;5.852;2023-05-28T11:35:15;27.79;28.83
65995;HTU21D;52764;51.036;5.852;2023-05-28T11:37:43;27.79;28.85
65995;HTU21D;52764;51.036;5.852;2023-05-28T11:40:11;27.90;28.19
65995;HTU21D;52764;51.036;5.852;2023-05-28T11:42:40;27.97;28.52
65995;HTU21D;52764;51.036;5.852;2023-05-28T11:45:07;28.00;28.22
65995;HTU21D;52764;51.036;5.852;2023-05-28T11:47:35;28.14;27.92
65995;HTU21D;52764;51.036;5.852;2023-05-28T11:50:07;28.19;27.78
65995;HTU21D;52764;51.036;5.852;2023-05-28T11:52:33;28.20;27.97
65995;HTU21D;52764;51.036;5.852;2023-05-28T11:55:00;28.29;28.51
65995;HTU21D;52764;51.036;5.852;2023-05-28T11:57:29;28.42;28.67
65995;HTU21D;52764;51.036;5.852;2023-05-28T11:59:59;28.34;27.74
65995;HTU21D;52764;51.036;5.852;2023-05-28T12:02:26;28.32;27.78
65995;HTU21D;52764;51.036;5.852;2023-05-28T12:05:02;28.14;27.45
65995;HTU21D;52764;51.036;5.852;2023-05-28T12:07:32;27.99;27.95
65995;HTU21D;52764;51.036;5.852;2023-05-28T12:10:09;28.13;28.58
65995;HTU21D;52764;51.036;5.852;2023-05-28T12:12:43;28.37;28.16
65995;HTU21D;52764;51.036;5.852;2023-05-28T12:15:10;28.37;28.17
65995;HTU21D;52764;51.036;5.852;2023-05-28T12:17:37;28.21;28.38
65995;HTU21D;52764;51.036;5.852;2023-05-28T12:23:06;28.38;28.55
65995;HTU21D;52764;51.036;5.852;2023-05-28T12:25:51;28.40;27.80
65995;HTU21D;52764;51.036;5.852;2023-05-28T12:28:20;28.41;27.55
65995;HTU21D;52764;51.036;5.852;2023-05-28T12:30:52;28.48;27.38
65995;HTU21D;52764;51.036;5.852;2023-05-28T12:33:20;28.45;27.68
65995;HTU21D;52764;51.036;5.852;2023-05-28T12:35:46;28.56;27.53
65995;HTU21D;52764;51.036;5.852;2023-05-28T12:38:13;28.59;27.13
65995;HTU21D;52764;51.036;5.852;2023-05-28T12:40:40;28.59;27.07
65995;HTU21D;52764;51.036;5.852;2023-05-28T12:43:07;28.27;26.63
65995;HTU21D;52764;51.036;5.852;2023-05-28T12:45:32;28.46;26.23
65995;HTU21D;52764;51.036;5.852;2023-05-28T12:47:59;28.33;25.72
65995;HTU21D;52764;51.036;5.852;2023-05-28T12:50:26;28.43;26.09
65995;HTU21D;52764;51.036;5.852;2023-05-28T12:52:51;28.58;25.82
65995;HTU21D;52764;51.036;5.852;2023-05-28T12:55:17;28.56;25.27
65995;HTU21D;52764;51.036;5.852;2023-05-28T12:57:43;28.58;25.05
65995;HTU21D;52764;51.036;5.852;2023-05-28T13:00:10;28.52;25.30
65995;HTU21D;52764;51.036;5.852;2023-05-28T13:02:39;28.34;25.49
65995;HTU21D;52764;51.036;5.852;2023-05-28T13:05:06;28.32;25.98
65995;HTU21D;52764;51.036;5.852;2023-05-28T13:07:32;28.32;26.23
65995;HTU21D;52764;51.036;5.852;2023-05-28T13:09:58;28.18;26.42
65995;HTU21D;52764;51.036;5.852;2023-05-28T13:12:29;28.34;25.97
65995;HTU21D;52764;51.036;5.852;2023-05-28T13:14:55;28.44;25.64
65995;HTU21D;52764;51.036;5.852;2023-05-28T13:17:20;28.34;25.94
65995;HTU21D;52764;51.036;5.852;2023-05-28T13:19:47;28.20;26.47
65995;HTU21D;52764;51.036;5.852;2023-05-28T13:22:13;28.24;25.75
65995;HTU21D;52764;51.036;5.852;2023-05-28T13:24:39;28.33;25.20
65995;HTU21D;52764;51.036;5.852;2023-05-28T13:27:05;28.31;24.98
65995;HTU21D;52764;51.036;5.852;2023-05-28T13:29:30;28.39;25.27
65995;HTU21D;52764;51.036;5.852;2023-05-28T13:31:56;28.41;24.33
65995;HTU21D;52764;51.036;5.852;2023-05-28T13:34:22;28.41;24.52
65995;HTU21D;52764;51.036;5.852;2023-05-28T13:36:48;28.46;24.49
65995;HTU21D;52764;51.036;5.852;2023-05-28T13:39:13;28.47;25.05
65995;HTU21D;52764;51.036;5.852;2023-05-28T13:41:39;28.44;24.98
65995;HTU21D;52764;51.036;5.852;2023-05-28T13:44:05;28.44;25.54
65995;HTU21D;52764;51.036;5.852;2023-05-28T13:46:31;28.46;25.57
65995;HTU21D;52764;51.036;5.852;2023-05-28T13:48:57;26.98;26.10
65995;HTU21D;52764;51.036;5.852;2023-05-28T13:51:23;28.55;26.43
65995;HTU21D;52764;51.036;5.852;2023-05-28T13:53:49;28.55;26.46
65995;HTU21D;52764;51.036;5.852;2023-05-28T13:56:15;28.53;27.17
65995;HTU21D;52764;51.036;5.852;2023-05-28T13:58:41;28.55;27.42
65995;HTU21D;52764;51.036;5.852;2023-05-28T14:01:07;28.47;27.51
65995;HTU21D;52764;51.036;5.852;2023-05-28T14:03:33;28.38;27.65
65995;HTU21D;52764;51.036;5.852;2023-05-28T14:05:59;28.46;27.39
65995;HTU21D;52764;51.036;5.852;2023-05-28T14:08:25;28.55;27.52
65995;HTU21D;52764;51.036;5.852;2023-05-28T14:10:50;28.52;27.39
65995;HTU21D;52764;51.036;5.852;2023-05-28T14:13:16;28.44;27.56
65995;HTU21D;52764;51.036;5.852;2023-05-28T14:15:42;28.32;27.78
65995;HTU21D;52764;51.036;5.852;2023-05-28T14:18:08;28.28;27.73
65995;HTU21D;52764;51.036;5.852;2023-05-28T14:20:33;28.26;28.16
65995;HTU21D;52764;51.036;5.852;2023-05-28T14:23:01;28.46;28.09
65995;HTU21D;52764;51.036;5.852;2023-05-28T14:25:27;28.45;27.52
65995;HTU21D;52764;51.036;5.852;2023-05-28T14:27:53;28.52;26.78
65995;HTU21D;52764;51.036;5.852;2023-05-28T14:30:19;28.63;26.39
65995;HTU21D;52764;51.036;5.852;2023-05-28T14:32:45;28.61;26.81
65995;HTU21D;52764;51.036;5.852;2023-05-28T14:35:11;28.68;26.63
65995;HTU21D;52764;51.036;5.852;2023-05-28T14:37:37;28.45;26.97
65995;HTU21D;52764;51.036;5.852;2023-05-28T14:40:03;28.24;27.52
65995;HTU21D;52764;51.036;5.852;2023-05-28T14:42:30;28.12;28.37
65995;HTU21D;52764;51.036;5.852;2023-05-28T14:44:56;28.15;28.65
65995;HTU21D;52764;51.036;5.852;2023-05-28T14:47:22;28.24;28.77
65995;HTU21D;52764;51.036;5.852;2023-05-28T14:49:48;28.39;29.00
65995;HTU21D;52764;51.036;5.852;2023-05-28T14:52:25;28.43;28.52
65995;HTU21D;52764;51.036;5.852;2023-05-28T14:54:55;28.35;0.48
65995;HTU21D;52764;51.036;5.852;2023-05-28T14:57:22;28.30;28.44
65995;HTU21D;52764;51.036;5.852;2023-05-28T14:59:49;28.33;28.63
65995;HTU21D;52764;51.036;5.852;2023-05-28T15:02:16;28.42;32.57
65995;HTU21D;52764;51.036;5.852;2023-05-28T15:04:42;28.56;29.17
65995;HTU21D;52764;51.036;5.852;2023-05-28T15:07:09;28.60;29.21
65995;HTU21D;52764;51.036;5.852;2023-05-28T15:09:36;28.44;28.99
65995;HTU21D;52764;51.036;5.852;2023-05-28T15:12:02;28.33;29.32
65995;HTU21D;52764;51.036;5.852;2023-05-28T15:14:29;28.24;29.59
65995;HTU21D;52764;51.036;5.852;2023-05-28T15:16:57;28.15;29.62
65995;HTU21D;52764;51.036;5.852;2023-05-28T15:19:24;28.17;29.77
65995;HTU21D;52764;51.036;5.852;2023-05-28T15:21:50;28.15;29.42
65995;HTU21D;52764;51.036;5.852;2023-05-28T15:24:16;28.04;29.42
65995;HTU21D;52764;51.036;5.852;2023-05-28T15:26:42;28.01;29.22
65995;HTU21D;52764;51.036;5.852;2023-05-28T15:29:08;27.95;29.45
65995;HTU21D;52764;51.036;5.852;2023-05-28T15:31:34;14.82;29.46